Terminal Aerodrome Forecast
Issued by NWS

Home | Current Version | Previous Version | Text Only | Print | Product List | Glossary On
Versions: 1 2 3 4 5 6 7 8 9 10 11 12 13 14 15 16
000
FTUS46 KPDT 060534
TAFDLS
TAF
KDLS 060534Z 0606/0706 30008KT P6SM SCT250
     FM061000 30009KT P6SM SCT070 BKN100
     FM061700 32012G18KT P6SM BKN060 BKN100
     FM062100 31012G19KT P6SM VCSH BKN060 BKN100
     FM070300 30011KT P6SM BKN100=

USA.gov is the U.S. government's official web portal to all federal, state and local government web resources and services.